sensor_id;sensor_type;location;lat;lon;timestamp;P1;durP1;ratioP1;P2;durP2;ratioP2
12212;SDS011;6169;44.158;22.788;2022-07-29T00:02:59;5.93;;;5.43;;
12212;SDS011;6169;44.158;22.788;2022-07-29T00:08:01;7.88;;;5.55;;
12212;SDS011;6169;44.158;22.788;2022-07-29T00:13:05;8.60;;;5.95;;
12212;SDS011;6169;44.158;22.788;2022-07-29T00:18:07;6.60;;;6.00;;
12212;SDS011;6169;44.158;22.788;2022-07-29T00:23:09;6.30;;;5.32;;
12212;SDS011;6169;44.158;22.788;2022-07-29T00:28:13;7.60;;;6.53;;
12212;SDS011;6169;44.158;22.788;2022-07-29T00:33:17;6.22;;;5.47;;
12212;SDS011;6169;44.158;22.788;2022-07-29T00:38:19;8.50;;;5.00;;
12212;SDS011;6169;44.158;22.788;2022-07-29T00:43:23;5.50;;;4.78;;
12212;SDS011;6169;44.158;22.788;2022-07-29T00:48:26;5.32;;;4.35;;
12212;SDS011;6169;44.158;22.788;2022-07-29T00:53:28;5.53;;;4.28;;
12212;SDS011;6169;44.158;22.788;2022-07-29T00:58:33;5.03;;;3.50;;
12212;SDS011;6169;44.158;22.788;2022-07-29T01:03:35;7.78;;;5.07;;
12212;SDS011;6169;44.158;22.788;2022-07-29T01:08:37;4.00;;;3.58;;
12212;SDS011;6169;44.158;22.788;2022-07-29T01:13:42;6.40;;;4.70;;
12212;SDS011;6169;44.158;22.788;2022-07-29T01:18:46;7.13;;;4.75;;
12212;SDS011;6169;44.158;22.788;2022-07-29T01:23:59;3.83;;;3.53;;
12212;SDS011;6169;44.158;22.788;2022-07-29T01:29:15;6.72;;;4.85;;
12212;SDS011;6169;44.158;22.788;2022-07-29T01:34:25;5.13;;;4.68;;
12212;SDS011;6169;44.158;22.788;2022-07-29T01:39:33;4.32;;;4.03;;
12212;SDS011;6169;44.158;22.788;2022-07-29T01:44:39;5.07;;;4.57;;
12212;SDS011;6169;44.158;22.788;2022-07-29T01:49:49;4.70;;;4.20;;
12212;SDS011;6169;44.158;22.788;2022-07-29T01:54:55;4.93;;;4.10;;
12212;SDS011;6169;44.158;22.788;2022-07-29T02:00:00;7.35;;;4.68;;
12212;SDS011;6169;44.158;22.788;2022-07-29T02:05:03;7.65;;;4.88;;
12212;SDS011;6169;44.158;22.788;2022-07-29T02:10:09;5.65;;;5.15;;
12212;SDS011;6169;44.158;22.788;2022-07-29T02:15:14;4.45;;;4.05;;
12212;SDS011;6169;44.158;22.788;2022-07-29T02:20:18;4.95;;;4.38;;
12212;SDS011;6169;44.158;22.788;2022-07-29T02:25:21;5.63;;;5.18;;
12212;SDS011;6169;44.158;22.788;2022-07-29T02:30:27;7.90;;;4.40;;
12212;SDS011;6169;44.158;22.788;2022-07-29T02:35:31;7.28;;;4.80;;
12212;SDS011;6169;44.158;22.788;2022-07-29T02:40:34;5.05;;;4.60;;
12212;SDS011;6169;44.158;22.788;2022-07-29T02:45:41;6.97;;;5.93;;
12212;SDS011;6169;44.158;22.788;2022-07-29T02:50:48;5.85;;;5.13;;
12212;SDS011;6169;44.158;22.788;2022-07-29T02:55:55;4.65;;;4.20;;
12212;SDS011;6169;44.158;22.788;2022-07-29T03:01:02;9.52;;;6.55;;
12212;SDS011;6169;44.158;22.788;2022-07-29T03:06:05;10.68;;;6.32;;
12212;SDS011;6169;44.158;22.788;2022-07-29T03:11:10;11.57;;;7.03;;
12212;SDS011;6169;44.158;22.788;2022-07-29T03:16:15;8.40;;;6.38;;
12212;SDS011;6169;44.158;22.788;2022-07-29T03:21:20;4.68;;;4.28;;
12212;SDS011;6169;44.158;22.788;2022-07-29T03:26:22;4.95;;;3.75;;
12212;SDS011;6169;44.158;22.788;2022-07-29T03:31:26;5.80;;;4.65;;
12212;SDS011;6169;44.158;22.788;2022-07-29T03:36:28;7.03;;;5.60;;
12212;SDS011;6169;44.158;22.788;2022-07-29T03:41:30;7.75;;;5.50;;
12212;SDS011;6169;44.158;22.788;2022-07-29T03:46:37;5.50;;;5.00;;
12212;SDS011;6169;44.158;22.788;2022-07-29T03:51:43;7.50;;;6.18;;
12212;SDS011;6169;44.158;22.788;2022-07-29T03:56:46;5.50;;;4.90;;
12212;SDS011;6169;44.158;22.788;2022-07-29T04:01:51;8.32;;;6.80;;
12212;SDS011;6169;44.158;22.788;2022-07-29T04:06:55;9.27;;;6.47;;
12212;SDS011;6169;44.158;22.788;2022-07-29T04:11:58;5.80;;;5.20;;
12212;SDS011;6169;44.158;22.788;2022-07-29T04:17:02;5.93;;;5.30;;
12212;SDS011;6169;44.158;22.788;2022-07-29T04:22:05;7.22;;;5.32;;
12212;SDS011;6169;44.158;22.788;2022-07-29T04:27:07;7.13;;;6.50;;
12212;SDS011;6169;44.158;22.788;2022-07-29T04:32:11;7.63;;;6.07;;
12212;SDS011;6169;44.158;22.788;2022-07-29T04:37:13;7.78;;;6.53;;
12212;SDS011;6169;44.158;22.788;2022-07-29T04:42:16;6.93;;;6.22;;
12212;SDS011;6169;44.158;22.788;2022-07-29T04:47:19;9.27;;;6.50;;
12212;SDS011;6169;44.158;22.788;2022-07-29T04:52:21;6.53;;;5.93;;
12212;SDS011;6169;44.158;22.788;2022-07-29T04:57:23;8.02;;;7.00;;
12212;SDS011;6169;44.158;22.788;2022-07-29T05:02:27;8.50;;;7.75;;
12212;SDS011;6169;44.158;22.788;2022-07-29T05:07:29;8.20;;;7.45;;
12212;SDS011;6169;44.158;22.788;2022-07-29T05:12:31;10.52;;;9.48;;
12212;SDS011;6169;44.158;22.788;2022-07-29T05:17:35;9.57;;;8.43;;
12212;SDS011;6169;44.158;22.788;2022-07-29T05:22:37;5.78;;;5.32;;
12212;SDS011;6169;44.158;22.788;2022-07-29T05:27:40;10.20;;;7.97;;
12212;SDS011;6169;44.158;22.788;2022-07-29T05:32:43;8.23;;;7.38;;
12212;SDS011;6169;44.158;22.788;2022-07-29T05:37:45;13.95;;;12.55;;
12212;SDS011;6169;44.158;22.788;2022-07-29T05:42:48;8.77;;;7.97;;
12212;SDS011;6169;44.158;22.788;2022-07-29T05:47:51;19.83;;;10.40;;
12212;SDS011;6169;44.158;22.788;2022-07-29T05:52:54;12.13;;;10.93;;
12212;SDS011;6169;44.158;22.788;2022-07-29T05:57:56;12.60;;;11.40;;
12212;SDS011;6169;44.158;22.788;2022-07-29T06:03:00;16.15;;;13.35;;
12212;SDS011;6169;44.158;22.788;2022-07-29T06:08:02;14.48;;;12.90;;
12212;SDS011;6169;44.158;22.788;2022-07-29T06:13:05;15.75;;;14.15;;
12212;SDS011;6169;44.158;22.788;2022-07-29T06:18:09;15.02;;;12.27;;
12212;SDS011;6169;44.158;22.788;2022-07-29T06:23:11;19.98;;;18.17;;
12212;SDS011;6169;44.158;22.788;2022-07-29T06:28:14;20.65;;;18.75;;
12212;SDS011;6169;44.158;22.788;2022-07-29T06:33:18;20.60;;;18.50;;
12212;SDS011;6169;44.158;22.788;2022-07-29T06:38:21;21.40;;;18.05;;
12212;SDS011;6169;44.158;22.788;2022-07-29T06:43:23;19.27;;;17.48;;
12212;SDS011;6169;44.158;22.788;2022-07-29T06:48:27;16.50;;;14.88;;
12212;SDS011;6169;44.158;22.788;2022-07-29T06:53:30;16.75;;;15.07;;
12212;SDS011;6169;44.158;22.788;2022-07-29T06:58:32;16.83;;;15.23;;
12212;SDS011;6169;44.158;22.788;2022-07-29T07:03:36;16.17;;;14.48;;
12212;SDS011;6169;44.158;22.788;2022-07-29T07:08:39;15.70;;;14.07;;
12212;SDS011;6169;44.158;22.788;2022-07-29T07:13:41;14.55;;;12.68;;
12212;SDS011;6169;44.158;22.788;2022-07-29T07:18:45;12.13;;;11.02;;
12212;SDS011;6169;44.158;22.788;2022-07-29T07:23:47;16.08;;;14.32;;
12212;SDS011;6169;44.158;22.788;2022-07-29T07:28:49;13.13;;;11.55;;
12212;SDS011;6169;44.158;22.788;2022-07-29T07:33:53;12.98;;;11.68;;
12212;SDS011;6169;44.158;22.788;2022-07-29T07:38:55;11.50;;;10.25;;
12212;SDS011;6169;44.158;22.788;2022-07-29T07:43:57;14.77;;;10.80;;
12212;SDS011;6169;44.158;22.788;2022-07-29T07:49:01;11.05;;;9.95;;
12212;SDS011;6169;44.158;22.788;2022-07-29T07:54:03;11.95;;;10.73;;
12212;SDS011;6169;44.158;22.788;2022-07-29T07:59:05;12.85;;;11.60;;
12212;SDS011;6169;44.158;22.788;2022-07-29T08:04:09;12.20;;;10.93;;
12212;SDS011;6169;44.158;22.788;2022-07-29T08:09:11;11.13;;;10.00;;
12212;SDS011;6169;44.158;22.788;2022-07-29T08:14:13;14.45;;;10.52;;
12212;SDS011;6169;44.158;22.788;2022-07-29T08:19:17;11.75;;;9.75;;
12212;SDS011;6169;44.158;22.788;2022-07-29T08:24:19;10.75;;;9.57;;
12212;SDS011;6169;44.158;22.788;2022-07-29T08:29:39;12.55;;;9.65;;
12212;SDS011;6169;44.158;22.788;2022-07-29T08:34:43;12.85;;;8.82;;
12212;SDS011;6169;44.158;22.788;2022-07-29T08:39:46;16.15;;;14.30;;
12212;SDS011;6169;44.158;22.788;2022-07-29T08:44:48;32.67;;;28.15;;
12212;SDS011;6169;44.158;22.788;2022-07-29T08:49:53;14.50;;;13.05;;
12212;SDS011;6169;44.158;22.788;2022-07-29T08:54:55;39.28;;;34.90;;
12212;SDS011;6169;44.158;22.788;2022-07-29T08:59:57;14.10;;;9.82;;
12212;SDS011;6169;44.158;22.788;2022-07-29T09:05:03;10.25;;;9.32;;
12212;SDS011;6169;44.158;22.788;2022-07-29T09:10:07;26.90;;;23.92;;
12212;SDS011;6169;44.158;22.788;2022-07-29T09:15:09;21.20;;;19.17;;
12212;SDS011;6169;44.158;22.788;2022-07-29T09:20:14;10.68;;;9.65;;
12212;SDS011;6169;44.158;22.788;2022-07-29T09:25:31;9.30;;;8.43;;
12212;SDS011;6169;44.158;22.788;2022-07-29T09:30:34;10.23;;;9.23;;
12212;SDS011;6169;44.158;22.788;2022-07-29T09:35:38;8.75;;;7.95;;
12212;SDS011;6169;44.158;22.788;2022-07-29T09:40:41;11.10;;;9.00;;
12212;SDS011;6169;44.158;22.788;2022-07-29T09:46:02;9.40;;;8.52;;
12212;SDS011;6169;44.158;22.788;2022-07-29T09:51:19;9.48;;;7.97;;
12212;SDS011;6169;44.158;22.788;2022-07-29T09:56:25;8.93;;;7.07;;
12212;SDS011;6169;44.158;22.788;2022-07-29T10:01:40;12.70;;;8.13;;
12212;SDS011;6169;44.158;22.788;2022-07-29T10:06:56;8.40;;;7.70;;
12212;SDS011;6169;44.158;22.788;2022-07-29T10:12:03;7.70;;;7.10;;
12212;SDS011;6169;44.158;22.788;2022-07-29T10:17:09;7.80;;;6.85;;
12212;SDS011;6169;44.158;22.788;2022-07-29T10:22:13;7.68;;;6.93;;
12212;SDS011;6169;44.158;22.788;2022-07-29T10:27:15;9.35;;;6.50;;
12212;SDS011;6169;44.158;22.788;2022-07-29T10:32:21;6.75;;;6.15;;
12212;SDS011;6169;44.158;22.788;2022-07-29T10:37:37;7.05;;;6.45;;
12212;SDS011;6169;44.158;22.788;2022-07-29T10:42:54;6.63;;;6.03;;
12212;SDS011;6169;44.158;22.788;2022-07-29T10:48:04;7.22;;;6.63;;
12212;SDS011;6169;44.158;22.788;2022-07-29T10:53:08;11.18;;;6.93;;
12212;SDS011;6169;44.158;22.788;2022-07-29T10:58:10;7.10;;;6.40;;
12212;SDS011;6169;44.158;22.788;2022-07-29T11:04:10;7.47;;;6.07;;
12212;SDS011;6169;44.158;22.788;2022-07-29T11:14:58;7.05;;;6.35;;
12212;SDS011;6169;44.158;22.788;2022-07-29T11:25:32;6.68;;;5.97;;
12212;SDS011;6169;44.158;22.788;2022-07-29T11:30:48;6.13;;;5.70;;
12212;SDS011;6169;44.158;22.788;2022-07-29T11:36:06;9.17;;;7.43;;
12212;SDS011;6169;44.158;22.788;2022-07-29T11:41:23;6.45;;;5.07;;
12212;SDS011;6169;44.158;22.788;2022-07-29T11:46:45;9.70;;;5.28;;
12212;SDS011;6169;44.158;22.788;2022-07-29T11:51:52;9.35;;;8.45;;
12212;SDS011;6169;44.158;22.788;2022-07-29T11:56:54;7.32;;;6.40;;
12212;SDS011;6169;44.158;22.788;2022-07-29T12:02:00;6.10;;;5.50;;
12212;SDS011;6169;44.158;22.788;2022-07-29T12:07:02;7.53;;;5.60;;
12212;SDS011;6169;44.158;22.788;2022-07-29T12:12:04;6.95;;;5.60;;
12212;SDS011;6169;44.158;22.788;2022-07-29T12:17:09;6.88;;;5.72;;
12212;SDS011;6169;44.158;22.788;2022-07-29T12:22:27;6.78;;;6.18;;
12212;SDS011;6169;44.158;22.788;2022-07-29T12:27:31;7.15;;;6.45;;
12212;SDS011;6169;44.158;22.788;2022-07-29T12:32:36;6.28;;;5.72;;
12212;SDS011;6169;44.158;22.788;2022-07-29T12:37:40;8.82;;;5.97;;
12212;SDS011;6169;44.158;22.788;2022-07-29T12:48:08;6.30;;;5.80;;
12212;SDS011;6169;44.158;22.788;2022-07-29T12:53:11;6.93;;;5.97;;
12212;SDS011;6169;44.158;22.788;2022-07-29T12:58:24;7.18;;;6.10;;
12212;SDS011;6169;44.158;22.788;2022-07-29T13:03:29;6.82;;;6.20;;
12212;SDS011;6169;44.158;22.788;2022-07-29T13:08:57;6.72;;;6.15;;
12212;SDS011;6169;44.158;22.788;2022-07-29T13:14:01;8.38;;;6.60;;
12212;SDS011;6169;44.158;22.788;2022-07-29T13:19:11;10.27;;;6.47;;
12212;SDS011;6169;44.158;22.788;2022-07-29T13:24:13;6.38;;;5.88;;
12212;SDS011;6169;44.158;22.788;2022-07-29T13:29:16;7.30;;;6.22;;
12212;SDS011;6169;44.158;22.788;2022-07-29T13:34:19;7.00;;;6.40;;
12212;SDS011;6169;44.158;22.788;2022-07-29T13:39:24;7.07;;;6.35;;
12212;SDS011;6169;44.158;22.788;2022-07-29T13:44:26;10.20;;;6.32;;
12212;SDS011;6169;44.158;22.788;2022-07-29T13:49:30;7.68;;;6.93;;
12212;SDS011;6169;44.158;22.788;2022-07-29T13:54:32;6.47;;;5.90;;
12212;SDS011;6169;44.158;22.788;2022-07-29T13:59:37;7.40;;;6.72;;
12212;SDS011;6169;44.158;22.788;2022-07-29T14:04:42;6.47;;;5.90;;
12212;SDS011;6169;44.158;22.788;2022-07-29T14:09:44;7.10;;;6.50;;
12212;SDS011;6169;44.158;22.788;2022-07-29T14:14:46;8.02;;;6.70;;
12212;SDS011;6169;44.158;22.788;2022-07-29T14:19:50;6.47;;;5.80;;
12212;SDS011;6169;44.158;22.788;2022-07-29T14:24:52;7.03;;;6.43;;
12212;SDS011;6169;44.158;22.788;2022-07-29T14:29:54;7.00;;;6.35;;
12212;SDS011;6169;44.158;22.788;2022-07-29T14:34:58;7.15;;;5.95;;
12212;SDS011;6169;44.158;22.788;2022-07-29T14:40:00;6.03;;;5.43;;
12212;SDS011;6169;44.158;22.788;2022-07-29T14:45:04;6.40;;;5.80;;
12212;SDS011;6169;44.158;22.788;2022-07-29T14:50:09;8.52;;;6.63;;
12212;SDS011;6169;44.158;22.788;2022-07-29T14:55:12;6.00;;;5.55;;
12212;SDS011;6169;44.158;22.788;2022-07-29T15:00:14;7.57;;;6.13;;
12212;SDS011;6169;44.158;22.788;2022-07-29T15:05:18;7.88;;;7.13;;
12212;SDS011;6169;44.158;22.788;2022-07-29T15:10:21;6.97;;;6.28;;
12212;SDS011;6169;44.158;22.788;2022-07-29T15:15:23;7.15;;;6.55;;
12212;SDS011;6169;44.158;22.788;2022-07-29T15:20:27;7.40;;;6.68;;
12212;SDS011;6169;44.158;22.788;2022-07-29T15:25:29;7.00;;;6.28;;
12212;SDS011;6169;44.158;22.788;2022-07-29T15:30:34;6.60;;;6.00;;
12212;SDS011;6169;44.158;22.788;2022-07-29T15:35:42;7.60;;;6.90;;
12212;SDS011;6169;44.158;22.788;2022-07-29T15:40:44;8.05;;;7.25;;
12212;SDS011;6169;44.158;22.788;2022-07-29T15:45:47;7.63;;;6.63;;
12212;SDS011;6169;44.158;22.788;2022-07-29T15:51:04;12.13;;;7.07;;
12212;SDS011;6169;44.158;22.788;2022-07-29T15:56:07;10.32;;;6.55;;
12212;SDS011;6169;44.158;22.788;2022-07-29T16:01:09;7.80;;;7.07;;
12212;SDS011;6169;44.158;22.788;2022-07-29T16:06:13;7.05;;;6.40;;
12212;SDS011;6169;44.158;22.788;2022-07-29T16:11:15;7.30;;;6.60;;
12212;SDS011;6169;44.158;22.788;2022-07-29T16:16:17;10.27;;;7.45;;
12212;SDS011;6169;44.158;22.788;2022-07-29T16:21:21;8.07;;;7.38;;
12212;SDS011;6169;44.158;22.788;2022-07-29T16:26:24;8.00;;;7.32;;
12212;SDS011;6169;44.158;22.788;2022-07-29T16:31:26;7.40;;;6.78;;
12212;SDS011;6169;44.158;22.788;2022-07-29T16:36:30;8.82;;;7.93;;
12212;SDS011;6169;44.158;22.788;2022-07-29T16:41:32;7.10;;;6.10;;
12212;SDS011;6169;44.158;22.788;2022-07-29T16:46:34;8.52;;;7.72;;
12212;SDS011;6169;44.158;22.788;2022-07-29T16:51:38;10.75;;;9.73;;
12212;SDS011;6169;44.158;22.788;2022-07-29T16:56:40;8.02;;;7.13;;
12212;SDS011;6169;44.158;22.788;2022-07-29T17:01:42;7.82;;;7.10;;
12212;SDS011;6169;44.158;22.788;2022-07-29T17:06:46;7.70;;;7.00;;
12212;SDS011;6169;44.158;22.788;2022-07-29T17:11:49;10.60;;;8.43;;
12212;SDS011;6169;44.158;22.788;2022-07-29T17:16:53;8.73;;;7.40;;
12212;SDS011;6169;44.158;22.788;2022-07-29T17:21:58;8.52;;;7.70;;
12212;SDS011;6169;44.158;22.788;2022-07-29T17:27:01;7.90;;;7.20;;
12212;SDS011;6169;44.158;22.788;2022-07-29T17:32:03;8.45;;;7.57;;
12212;SDS011;6169;44.158;22.788;2022-07-29T17:37:08;9.60;;;6.88;;
12212;SDS011;6169;44.158;22.788;2022-07-29T17:42:12;7.82;;;7.10;;
12212;SDS011;6169;44.158;22.788;2022-07-29T17:47:14;11.15;;;8.10;;
12212;SDS011;6169;44.158;22.788;2022-07-29T17:52:18;8.13;;;7.43;;
12212;SDS011;6169;44.158;22.788;2022-07-29T17:57:20;8.15;;;7.32;;
12212;SDS011;6169;44.158;22.788;2022-07-29T18:02:23;8.02;;;7.22;;
12212;SDS011;6169;44.158;22.788;2022-07-29T18:07:26;8.75;;;7.80;;
12212;SDS011;6169;44.158;22.788;2022-07-29T18:12:29;8.30;;;7.50;;
12212;SDS011;6169;44.158;22.788;2022-07-29T18:17:31;11.43;;;8.50;;
12212;SDS011;6169;44.158;22.788;2022-07-29T18:22:35;12.68;;;9.13;;
12212;SDS011;6169;44.158;22.788;2022-07-29T18:27:37;15.07;;;12.95;;
12212;SDS011;6169;44.158;22.788;2022-07-29T18:32:39;9.43;;;8.43;;
12212;SDS011;6169;44.158;22.788;2022-07-29T18:37:43;10.65;;;8.82;;
12212;SDS011;6169;44.158;22.788;2022-07-29T18:42:45;10.00;;;9.05;;
12212;SDS011;6169;44.158;22.788;2022-07-29T18:47:48;10.25;;;9.27;;
12212;SDS011;6169;44.158;22.788;2022-07-29T18:52:52;11.07;;;10.07;;
12212;SDS011;6169;44.158;22.788;2022-07-29T18:57:55;13.48;;;10.10;;
12212;SDS011;6169;44.158;22.788;2022-07-29T19:02:58;15.05;;;10.10;;
12212;SDS011;6169;44.158;22.788;2022-07-29T19:08:01;12.75;;;10.82;;
12212;SDS011;6169;44.158;22.788;2022-07-29T19:13:04;12.80;;;10.63;;
12212;SDS011;6169;44.158;22.788;2022-07-29T19:18:07;11.98;;;10.88;;
12212;SDS011;6169;44.158;22.788;2022-07-29T19:23:11;12.57;;;11.38;;
12212;SDS011;6169;44.158;22.788;2022-07-29T19:28:13;13.52;;;12.25;;
12212;SDS011;6169;44.158;22.788;2022-07-29T19:33:15;14.80;;;13.30;;
12212;SDS011;6169;44.158;22.788;2022-07-29T19:38:19;14.68;;;13.27;;
12212;SDS011;6169;44.158;22.788;2022-07-29T19:43:22;14.32;;;12.55;;
12212;SDS011;6169;44.158;22.788;2022-07-29T19:48:24;13.25;;;11.95;;
12212;SDS011;6169;44.158;22.788;2022-07-29T19:53:28;11.90;;;10.80;;
12212;SDS011;6169;44.158;22.788;2022-07-29T19:58:30;12.23;;;11.23;;
12212;SDS011;6169;44.158;22.788;2022-07-29T20:03:32;11.73;;;10.77;;
12212;SDS011;6169;44.158;22.788;2022-07-29T20:08:36;11.35;;;10.32;;
12212;SDS011;6169;44.158;22.788;2022-07-29T20:13:39;12.07;;;10.80;;
12212;SDS011;6169;44.158;22.788;2022-07-29T20:18:41;13.50;;;11.00;;
12212;SDS011;6169;44.158;22.788;2022-07-29T20:23:44;12.57;;;11.48;;
12212;SDS011;6169;44.158;22.788;2022-07-29T20:28:47;12.30;;;11.10;;
12212;SDS011;6169;44.158;22.788;2022-07-29T20:33:49;12.35;;;11.25;;
12212;SDS011;6169;44.158;22.788;2022-07-29T20:38:53;12.15;;;10.80;;
12212;SDS011;6169;44.158;22.788;2022-07-29T20:43:55;12.75;;;11.50;;
12212;SDS011;6169;44.158;22.788;2022-07-29T20:48:58;12.40;;;11.30;;
12212;SDS011;6169;44.158;22.788;2022-07-29T20:54:02;13.07;;;11.85;;
12212;SDS011;6169;44.158;22.788;2022-07-29T20:59:04;10.90;;;9.82;;
12212;SDS011;6169;44.158;22.788;2022-07-29T21:04:06;12.93;;;11.65;;
12212;SDS011;6169;44.158;22.788;2022-07-29T21:09:10;11.98;;;10.73;;
12212;SDS011;6169;44.158;22.788;2022-07-29T21:14:12;13.73;;;12.32;;
12212;SDS011;6169;44.158;22.788;2022-07-29T21:19:27;12.63;;;11.43;;
12212;SDS011;6169;44.158;22.788;2022-07-29T21:24:30;12.38;;;11.07;;
12212;SDS011;6169;44.158;22.788;2022-07-29T21:29:32;13.18;;;11.98;;
12212;SDS011;6169;44.158;22.788;2022-07-29T21:34:35;12.80;;;11.60;;
12212;SDS011;6169;44.158;22.788;2022-07-29T21:39:38;12.45;;;11.25;;
12212;SDS011;6169;44.158;22.788;2022-07-29T21:44:40;15.27;;;13.70;;
12212;SDS011;6169;44.158;22.788;2022-07-29T21:49:42;14.57;;;12.65;;
12212;SDS011;6169;44.158;22.788;2022-07-29T21:54:47;15.18;;;13.77;;
12212;SDS011;6169;44.158;22.788;2022-07-29T21:59:49;15.05;;;13.65;;
12212;SDS011;6169;44.158;22.788;2022-07-29T22:04:51;17.33;;;15.40;;
12212;SDS011;6169;44.158;22.788;2022-07-29T22:09:55;20.20;;;17.00;;
12212;SDS011;6169;44.158;22.788;2022-07-29T22:14:57;17.38;;;15.68;;
12212;SDS011;6169;44.158;22.788;2022-07-29T22:20:00;15.82;;;14.35;;
12212;SDS011;6169;44.158;22.788;2022-07-29T22:25:04;16.65;;;15.13;;
12212;SDS011;6169;44.158;22.788;2022-07-29T22:30:08;16.48;;;14.90;;
12212;SDS011;6169;44.158;22.788;2022-07-29T22:35:11;14.80;;;13.55;;
12212;SDS011;6169;44.158;22.788;2022-07-29T22:40:14;16.00;;;14.25;;
12212;SDS011;6169;44.158;22.788;2022-07-29T22:45:17;15.40;;;13.85;;
12212;SDS011;6169;44.158;22.788;2022-07-29T22:50:19;15.40;;;13.90;;
12212;SDS011;6169;44.158;22.788;2022-07-29T22:55:23;16.45;;;14.85;;
12212;SDS011;6169;44.158;22.788;2022-07-29T23:00:25;14.77;;;13.43;;
12212;SDS011;6169;44.158;22.788;2022-07-29T23:05:27;13.95;;;12.75;;
12212;SDS011;6169;44.158;22.788;2022-07-29T23:10:31;14.88;;;13.48;;
12212;SDS011;6169;44.158;22.788;2022-07-29T23:15:33;15.05;;;13.75;;
12212;SDS011;6169;44.158;22.788;2022-07-29T23:20:36;16.80;;;14.68;;
12212;SDS011;6169;44.158;22.788;2022-07-29T23:25:40;18.98;;;15.27;;
12212;SDS011;6169;44.158;22.788;2022-07-29T23:30:42;18.10;;;14.98;;
12212;SDS011;6169;44.158;22.788;2022-07-29T23:35:44;14.70;;;13.25;;
12212;SDS011;6169;44.158;22.788;2022-07-29T23:40:48;14.88;;;13.23;;
12212;SDS011;6169;44.158;22.788;2022-07-29T23:45:50;15.65;;;14.05;;
12212;SDS011;6169;44.158;22.788;2022-07-29T23:50:52;15.00;;;13.55;;
12212;SDS011;6169;44.158;22.788;2022-07-29T23:55:56;13.75;;;12.45;;
